Time;durP1;ratioP1;P1;durP2;ratioP2;P2;SDS_P1;SDS_P2;PMS_P1;PMS_P2;Temp;Humidity;BMP_temperature;BMP_pressure;BME280_temperature;BME280_humidity;BME280_pressure;Samples;Min_cycle;Max_cycle;Signal;HPM_P1;HPM_P2
2023/11/11 00:00:11;;;;;;;3.17;2.43;;;6.70;99.90;;;;;;5064069;28;20196;-67
2023/11/11 00:02:37;;;;;;;2.77;2.30;;;6.70;99.90;;;;;;5055583;28;20922;-67
2023/11/11 00:05:03;;;;;;;2.60;1.90;;;6.60;99.90;;;;;;5060542;28;20447;-68
2023/11/11 00:07:29;;;;;;;2.30;1.87;;;6.60;99.90;;;;;;5057892;28;20764;-67
2023/11/11 00:09:54;;;;;;;2.50;1.97;;;6.50;99.90;;;;;;5055520;28;20444;-67
2023/11/11 00:12:21;;;;;;;2.37;2.17;;;6.50;99.90;;;;;;5056131;28;20178;-67
2023/11/11 00:14:47;;;;;;;4.77;1.93;;;6.50;99.90;;;;;;5054976;28;20194;-67
2023/11/11 00:17:12;;;;;;;4.30;3.10;;;6.50;99.90;;;;;;5055396;28;20464;-67
2023/11/11 00:19:38;;;;;;;4.10;2.60;;;6.60;99.90;;;;;;5055131;28;20186;-65
2023/11/11 00:22:04;;;;;;;2.00;1.90;;;6.60;99.90;;;;;;5055224;28;20175;-66
2023/11/11 00:24:30;;;;;;;3.93;2.70;;;6.60;99.90;;;;;;5054684;28;20174;-66
2023/11/11 00:26:56;;;;;;;2.47;2.27;;;6.60;99.90;;;;;;5054856;28;20471;-65
2023/11/11 00:29:22;;;;;;;2.60;1.83;;;6.70;99.90;;;;;;5047058;28;20432;-67
2023/11/11 00:31:48;;;;;;;2.43;2.27;;;6.70;99.90;;;;;;5051384;28;20930;-65
2023/11/11 00:34:16;;;;;;;2.23;2.03;;;6.70;99.90;;;;;;5054818;28;20186;-67
2023/11/11 00:36:42;;;;;;;4.73;2.23;;;6.70;99.90;;;;;;5054414;28;20455;-66
2023/11/11 00:39:12;;;;;;;2.43;2.03;;;6.70;99.90;;;;;;5054390;28;20434;-67
2023/11/11 00:41:38;;;;;;;2.23;2.03;;;6.80;99.90;;;;;;5047466;28;20983;-67
2023/11/11 00:44:09;;;;;;;2.03;1.60;;;6.70;99.90;;;;;;5054432;28;20413;-67
2023/11/11 00:46:37;;;;;;;2.17;1.90;;;6.80;99.90;;;;;;5046141;28;20511;-66
2023/11/11 00:49:03;;;;;;;5.57;2.27;;;6.80;99.90;;;;;;5053249;28;21275;-66
2023/11/11 00:51:29;;;;;;;4.00;2.10;;;6.80;99.90;;;;;;5054137;28;20939;-67
2023/11/11 00:53:56;;;;;;;2.47;2.33;;;6.70;99.90;;;;;;5054313;28;20414;-67
2023/11/11 00:56:22;;;;;;;3.13;2.83;;;6.80;99.90;;;;;;5054199;28;20202;-68
2023/11/11 00:58:48;;;;;;;2.57;2.03;;;6.80;99.90;;;;;;5054069;28;20432;-66
2023/11/11 01:01:13;;;;;;;2.33;2.13;;;6.80;99.90;;;;;;5053746;28;20171;-68
2023/11/11 01:03:39;;;;;;;2.80;2.43;;;6.70;99.90;;;;;;5054053;28;20731;-68
2023/11/11 01:06:05;;;;;;;2.60;2.30;;;6.70;99.90;;;;;;5053017;28;20202;-66
2023/11/11 01:08:31;;;;;;;6.23;2.83;;;6.70;99.90;;;;;;5053667;28;20498;-67
2023/11/11 01:10:57;;;;;;;3.40;2.23;;;6.70;99.90;;;;;;5054191;28;20417;-67
2023/11/11 01:13:25;;;;;;;5.07;2.57;;;6.70;99.90;;;;;;5054134;28;20716;-68
2023/11/11 01:15:52;;;;;;;2.57;1.63;;;6.70;99.90;;;;;;5053543;28;20562;-66
2023/11/11 01:18:19;;;;;;;3.53;2.43;;;6.60;99.90;;;;;;5053917;28;20414;-67
2023/11/11 01:20:45;;;;;;;3.53;2.50;;;6.60;99.90;;;;;;5053756;28;20465;-66
2023/11/11 01:23:11;;;;;;;2.40;2.20;;;6.70;99.90;;;;;;5051509;28;20578;-66
2023/11/11 01:25:37;;;;;;;2.87;2.50;;;6.70;99.90;;;;;;5053736;28;20459;-67
2023/11/11 01:28:03;;;;;;;4.10;2.87;;;6.60;99.90;;;;;;5053732;28;20950;-67
2023/11/11 01:30:29;;;;;;;2.77;1.90;;;6.60;99.90;;;;;;5053580;28;20201;-67
2023/11/11 01:32:54;;;;;;;2.20;1.70;;;6.50;99.90;;;;;;5052640;28;20804;-67
2023/11/11 01:35:20;;;;;;;4.03;2.13;;;6.50;99.90;;;;;;5053621;28;20181;-66
2023/11/11 01:37:46;;;;;;;3.43;2.20;;;6.40;99.90;;;;;;5053153;28;20716;-66
2023/11/11 01:40:12;;;;;;;3.40;2.30;;;6.40;99.90;;;;;;5050516;28;20198;-65
2023/11/11 01:42:38;;;;;;;3.60;2.10;;;6.30;99.90;;;;;;5045662;28;20494;-67
2023/11/11 01:45:04;;;;;;;2.70;2.50;;;6.30;99.90;;;;;;5048903;28;20507;-67
2023/11/11 01:47:30;;;;;;;2.90;2.70;;;6.30;99.90;;;;;;5049986;28;20178;-66
2023/11/11 01:49:55;;;;;;;3.17;2.53;;;6.20;99.90;;;;;;5053175;28;20464;-67
2023/11/11 01:52:21;;;;;;;2.57;2.37;;;6.20;99.90;;;;;;5053447;28;20206;-67
2023/11/11 01:54:47;;;;;;;3.10;2.20;;;6.10;99.90;;;;;;5053129;28;20194;-67
2023/11/11 01:57:14;;;;;;;4.43;2.30;;;6.00;99.90;;;;;;5053014;28;20464;-67
2023/11/11 01:59:40;;;;;;;2.33;2.13;;;6.00;99.90;;;;;;5053313;28;20509;-67
2023/11/11 02:02:06;;;;;;;3.00;2.17;;;5.90;99.90;;;;;;5052803;28;20408;-66
2023/11/11 02:04:32;;;;;;;2.50;1.87;;;5.90;99.90;;;;;;5053149;28;20423;-66
2023/11/11 02:06:57;;;;;;;3.00;2.10;;;5.90;99.90;;;;;;5053139;28;20182;-66
2023/11/11 02:09:24;;;;;;;2.63;2.00;;;5.80;99.90;;;;;;5053140;28;20778;-67
2023/11/11 02:11:59;;;;;;;3.17;2.40;;;5.80;99.90;;;;;;5054074;28;20609;-67
2023/11/11 02:14:25;;;;;;;2.47;1.97;;;5.70;99.90;;;;;;5055830;28;20434;-67
2023/11/11 02:16:51;;;;;;;2.87;2.43;;;5.70;99.90;;;;;;5053056;28;20970;-67
2023/11/11 02:19:17;;;;;;;2.80;2.60;;;5.70;99.90;;;;;;5055832;28;20436;-66
2023/11/11 02:21:43;;;;;;;6.50;2.43;;;5.60;99.90;;;;;;5055072;28;20629;-67
2023/11/11 02:24:10;;;;;;;5.23;2.60;;;5.60;99.90;;;;;;5057271;28;20177;-67
2023/11/11 02:26:36;;;;;;;3.07;2.23;;;5.60;99.90;;;;;;5056948;28;20256;-66
2023/11/11 02:29:02;;;;;;;2.57;2.37;;;5.60;99.90;;;;;;5057254;28;20497;-66
2023/11/11 02:31:27;;;;;;;4.10;2.97;;;5.50;99.90;;;;;;5055585;28;20816;-67
2023/11/11 02:33:53;;;;;;;1.90;1.70;;;5.50;99.90;;;;;;5055661;28;20283;-67
2023/11/11 02:36:19;;;;;;;2.27;2.07;;;5.40;99.90;;;;;;5056420;28;20226;-67
2023/11/11 02:38:45;;;;;;;2.30;2.10;;;5.40;99.90;;;;;;5052672;28;20183;-67
2023/11/11 02:41:10;;;;;;;2.17;1.97;;;5.40;99.90;;;;;;5056616;28;20427;-68
2023/11/11 02:43:36;;;;;;;6.53;2.37;;;5.30;99.90;;;;;;5057154;28;20184;-67
2023/11/11 02:46:02;;;;;;;2.43;2.13;;;5.30;99.90;;;;;;5049552;28;20178;-67
2023/11/11 02:48:28;;;;;;;3.20;2.10;;;5.30;99.90;;;;;;5054290;28;20208;-68
2023/11/11 02:50:53;;;;;;;2.97;2.60;;;5.20;99.90;;;;;;5056769;28;20281;-67
2023/11/11 02:53:19;;;;;;;4.23;2.73;;;5.20;99.90;;;;;;5056596;28;20174;-67
2023/11/11 02:55:45;;;;;;;2.60;2.40;;;5.20;99.90;;;;;;5056310;28;20210;-67
2023/11/11 02:58:11;;;;;;;8.47;2.33;;;5.10;99.90;;;;;;5056265;28;20251;-67
2023/11/11 03:00:39;;;;;;;2.80;2.10;;;5.10;99.90;;;;;;5056336;28;20807;-66
2023/11/11 03:03:07;;;;;;;2.43;2.20;;;5.00;99.90;;;;;;5035103;28;20185;-65
2023/11/11 03:05:33;;;;;;;4.37;3.27;;;5.00;99.90;;;;;;5053321;28;21078;-66
2023/11/11 03:07:58;;;;;;;2.87;2.50;;;5.00;99.90;;;;;;5056554;28;20503;-67
2023/11/11 03:10:25;;;;;;;3.80;2.60;;;5.00;99.90;;;;;;5055865;28;20440;-65
2023/11/11 03:12:50;;;;;;;7.10;3.47;;;5.00;99.90;;;;;;5056604;28;20556;-66
2023/11/11 03:15:16;;;;;;;3.17;2.60;;;5.00;99.90;;;;;;5057264;28;20428;-67
2023/11/11 03:17:43;;;;;;;3.33;2.63;;;4.90;99.90;;;;;;5056380;28;20178;-67
2023/11/11 03:20:09;;;;;;;5.87;2.67;;;5.00;99.90;;;;;;5052673;28;20190;-67
2023/11/11 03:22:35;;;;;;;5.47;2.80;;;5.00;99.90;;;;;;5053983;28;20424;-67
2023/11/11 03:25:00;;;;;;;4.20;2.20;;;4.90;99.90;;;;;;5055027;28;21213;-67
2023/11/11 03:27:26;;;;;;;3.90;2.87;;;4.90;99.90;;;;;;5051816;28;20189;-67
2023/11/11 03:29:52;;;;;;;2.43;2.23;;;4.80;99.90;;;;;;5055406;28;20202;-68
2023/11/11 03:32:17;;;;;;;4.17;3.33;;;4.80;99.90;;;;;;5052158;28;20630;-66
2023/11/11 03:34:43;;;;;;;4.13;2.87;;;4.80;99.90;;;;;;5059138;28;20590;-66
2023/11/11 03:37:09;;;;;;;3.57;2.47;;;4.80;99.90;;;;;;5056027;28;20202;-66
2023/11/11 03:39:34;;;;;;;2.43;2.23;;;4.80;99.90;;;;;;5051282;28;20444;-67
2023/11/11 03:42:00;;;;;;;7.80;2.60;;;4.70;99.90;;;;;;5055124;28;20193;-66
2023/11/11 03:44:26;;;;;;;4.87;3.50;;;4.70;99.90;;;;;;5055606;28;20175;-67
2023/11/11 03:46:51;;;;;;;3.50;3.10;;;4.80;99.90;;;;;;5048105;28;20255;-66
2023/11/11 03:49:17;;;;;;;3.80;2.50;;;4.70;99.90;;;;;;5055665;28;20555;-69
2023/11/11 03:51:42;;;;;;;3.73;2.27;;;4.70;99.90;;;;;;5055993;28;20182;-66
2023/11/11 03:54:08;;;;;;;3.50;2.83;;;4.70;99.90;;;;;;5056797;28;20182;-66
2023/11/11 03:56:33;;;;;;;3.27;2.97;;;4.70;99.90;;;;;;5055144;28;20213;-66
2023/11/11 03:58:59;;;;;;;3.53;2.53;;;4.70;99.90;;;;;;5056712;28;20510;-66
2023/11/11 04:01:25;;;;;;;3.80;3.10;;;4.70;99.90;;;;;;5056622;28;20299;-66
2023/11/11 04:03:50;;;;;;;4.07;3.77;;;4.70;99.90;;;;;;5055454;28;20604;-66
2023/11/11 04:06:16;;;;;;;5.43;3.57;;;4.80;99.90;;;;;;5055641;28;20273;-66
2023/11/11 04:08:42;;;;;;;2.93;2.70;;;4.90;99.90;;;;;;5055885;28;20190;-66
2023/11/11 04:11:08;;;;;;;4.03;2.87;;;4.90;99.90;;;;;;5055297;28;20178;-65
2023/11/11 04:13:34;;;;;;;4.07;2.93;;;5.00;99.90;;;;;;5055344;28;20550;-67
2023/11/11 04:16:01;;;;;;;5.80;3.10;;;5.00;99.90;;;;;;5055107;28;20467;-65
2023/11/11 04:18:27;;;;;;;7.07;3.30;;;5.10;99.90;;;;;;5049747;28;20538;-66
2023/11/11 04:20:52;;;;;;;3.27;2.90;;;5.20;99.90;;;;;;5055029;28;20436;-66
2023/11/11 04:23:20;;;;;;;8.30;2.83;;;5.20;99.90;;;;;;5055348;28;20174;-65
2023/11/11 04:25:46;;;;;;;4.07;3.20;;;5.30;99.90;;;;;;5054935;28;20970;-66
2023/11/11 04:28:12;;;;;;;6.90;3.30;;;5.30;99.90;;;;;;5055045;28;20829;-66
2023/11/11 04:30:37;;;;;;;4.13;2.80;;;5.30;99.90;;;;;;5051283;28;20472;-67
2023/11/11 04:33:03;;;;;;;4.73;3.37;;;5.40;99.90;;;;;;5053857;28;20297;-66
2023/11/11 04:35:28;;;;;;;3.50;2.40;;;5.40;99.90;;;;;;5053577;28;20190;-66
2023/11/11 04:37:54;;;;;;;5.23;3.10;;;5.50;99.90;;;;;;5055047;28;20368;-64
2023/11/11 04:40:21;;;;;;;3.03;2.83;;;5.50;99.90;;;;;;5049298;28;20190;-68
2023/11/11 04:42:47;;;;;;;3.23;2.73;;;5.50;99.90;;;;;;5054461;28;20359;-65
2023/11/11 04:45:12;;;;;;;3.60;2.80;;;5.60;99.90;;;;;;5052661;28;20814;-65
2023/11/11 04:47:38;;;;;;;3.27;2.70;;;5.60;99.90;;;;;;5054251;28;20206;-65
2023/11/11 04:50:05;;;;;;;4.43;3.10;;;5.60;99.90;;;;;;5054562;28;20661;-66
2023/11/11 04:52:31;;;;;;;2.80;2.60;;;5.70;99.90;;;;;;5055177;28;20202;-67
2023/11/11 04:54:57;;;;;;;7.57;2.80;;;5.70;99.90;;;;;;5055903;28;20443;-67
2023/11/11 04:57:22;;;;;;;4.93;3.40;;;5.70;99.90;;;;;;5059419;28;20898;-68
2023/11/11 04:59:48;;;;;;;4.70;3.53;;;5.70;99.90;;;;;;5057529;28;20333;-68
2023/11/11 05:02:14;;;;;;;4.70;3.13;;;5.70;99.90;;;;;;5054318;28;20205;-68
2023/11/11 05:04:39;;;;;;;4.57;2.57;;;5.80;99.90;;;;;;5053844;28;20184;-67
2023/11/11 05:07:05;;;;;;;6.00;3.00;;;5.80;99.90;;;;;;5054264;28;20191;-67
2023/11/11 05:09:30;;;;;;;5.50;2.63;;;5.80;99.90;;;;;;5060091;28;20270;-66
2023/11/11 05:11:57;;;;;;;4.80;2.93;;;5.80;99.90;;;;;;5056125;28;20571;-67
2023/11/11 05:14:23;;;;;;;3.70;2.80;;;5.80;99.90;;;;;;5053739;28;20185;-67
2023/11/11 05:16:52;;;;;;;3.10;2.40;;;5.80;99.90;;;;;;5053777;28;20460;-67
2023/11/11 05:19:18;;;;;;;4.27;3.37;;;5.80;99.90;;;;;;5053596;28;20429;-67
2023/11/11 05:21:44;;;;;;;4.33;2.97;;;5.90;99.90;;;;;;5053477;28;20990;-65
2023/11/11 05:24:10;;;;;;;2.97;2.67;;;5.90;99.90;;;;;;5062401;28;20410;-65
2023/11/11 05:26:38;;;;;;;4.83;3.07;;;5.90;99.90;;;;;;5054457;28;20179;-66
2023/11/11 05:29:04;;;;;;;4.90;3.23;;;5.80;99.90;;;;;;5053974;28;20468;-67
2023/11/11 05:31:31;;;;;;;3.70;3.03;;;5.80;99.90;;;;;;5049602;28;21043;-66
2023/11/11 05:34:00;;;;;;;5.63;3.90;;;5.80;99.90;;;;;;5051579;28;20475;-66
2023/11/11 05:36:27;;;;;;;5.33;2.93;;;5.80;99.90;;;;;;5052580;28;20453;-66
2023/11/11 05:38:53;;;;;;;7.03;3.87;;;5.80;99.90;;;;;;5048302;28;20441;-65
2023/11/11 05:41:19;;;;;;;3.63;3.33;;;5.70;99.90;;;;;;5054340;28;20417;-64
2023/11/11 05:43:45;;;;;;;3.43;2.60;;;5.70;99.90;;;;;;5050429;28;20427;-68
2023/11/11 05:46:11;;;;;;;4.23;2.27;;;5.60;99.90;;;;;;5044951;28;20759;-68
2023/11/11 05:48:40;;;;;;;2.90;2.63;;;5.60;99.90;;;;;;5053849;28;20186;-66
2023/11/11 05:51:07;;;;;;;4.23;2.70;;;5.50;99.90;;;;;;5054728;28;20664;-66
2023/11/11 05:53:33;;;;;;;9.63;3.60;;;5.50;99.90;;;;;;5053505;28;20471;-66
2023/11/11 05:55:59;;;;;;;3.93;3.03;;;5.40;99.90;;;;;;5054086;28;20920;-66
2023/11/11 05:58:25;;;;;;;3.43;3.10;;;5.40;99.90;;;;;;5054307;28;20567;-66
2023/11/11 06:00:51;;;;;;;3.90;3.13;;;5.40;99.90;;;;;;5053377;28;20444;-67
2023/11/11 06:03:18;;;;;;;6.27;3.57;;;5.40;99.90;;;;;;5053512;28;20170;-66
2023/11/11 06:05:45;;;;;;;4.10;2.87;;;5.40;99.90;;;;;;5053128;28;20417;-66
2023/11/11 06:08:11;;;;;;;4.57;3.03;;;5.40;99.90;;;;;;5053279;28;20416;-66
2023/11/11 06:10:38;;;;;;;3.73;3.03;;;5.40;99.90;;;;;;5050120;28;20887;-67
2023/11/11 06:13:07;;;;;;;5.83;3.70;;;5.40;99.90;;;;;;5051451;28;20431;-67
2023/11/11 06:15:35;;;;;;;7.73;3.80;;;5.40;99.90;;;;;;5054477;28;20436;-66
2023/11/11 06:18:01;;;;;;;10.33;3.80;;;5.40;99.90;;;;;;5053352;28;20432;-66
2023/11/11 06:20:28;;;;;;;3.30;2.63;;;5.40;99.90;;;;;;5052896;28;20452;-66
2023/11/11 06:22:54;;;;;;;4.37;3.13;;;5.40;99.90;;;;;;5053467;28;20460;-66
2023/11/11 06:25:21;;;;;;;4.83;3.50;;;5.50;99.90;;;;;;5053335;28;20421;-68
2023/11/11 06:27:48;;;;;;;8.60;3.80;;;5.50;99.90;;;;;;5051881;28;20538;-72
2023/11/11 06:30:16;;;;;;;3.83;3.43;;;5.50;99.90;;;;;;5059324;28;20487;-65
2023/11/11 06:32:42;;;;;;;9.60;3.80;;;5.50;99.90;;;;;;5054622;28;20417;-76
2023/11/11 06:35:08;;;;;;;6.97;4.87;;;5.60;99.90;;;;;;5053059;28;20941;-65
2023/11/11 06:37:36;;;;;;;4.07;3.50;;;5.60;99.90;;;;;;5052893;28;20460;-65
2023/11/11 06:40:03;;;;;;;5.67;3.53;;;5.50;99.90;;;;;;5053799;28;20429;-65
2023/11/11 06:42:29;;;;;;;7.23;3.20;;;5.40;99.90;;;;;;5053934;28;20421;-65
2023/11/11 06:44:56;;;;;;;3.63;2.63;;;5.40;99.90;;;;;;5049098;28;20522;-67
2023/11/11 06:47:22;;;;;;;5.80;3.73;;;5.40;99.90;;;;;;5054385;28;20428;-67
2023/11/11 06:49:47;;;;;;;9.47;4.33;;;5.30;99.90;;;;;;5054220;28;20750;-65
2023/11/11 06:52:13;;;;;;;7.00;3.83;;;5.30;99.90;;;;;;5055207;28;20428;-65
2023/11/11 06:54:39;;;;;;;4.50;3.97;;;5.20;99.90;;;;;;5053055;28;20783;-66
2023/11/11 06:57:05;;;;;;;5.87;3.43;;;5.20;99.90;;;;;;5052705;28;20259;-64
2023/11/11 06:59:32;;;;;;;5.40;4.17;;;5.20;99.90;;;;;;5054835;28;20941;-64
2023/11/11 07:01:57;;;;;;;6.53;4.53;;;5.10;99.90;;;;;;5053161;28;20197;-65
2023/11/11 07:04:23;;;;;;;6.93;4.90;;;5.20;99.90;;;;;;5059599;28;20474;-65
2023/11/11 07:06:48;;;;;;;6.97;4.40;;;5.20;99.90;;;;;;5056401;28;20178;-66
2023/11/11 07:09:14;;;;;;;10.60;4.93;;;5.20;99.90;;;;;;5056160;28;20630;-66
2023/11/11 07:11:40;;;;;;;4.87;4.37;;;5.20;99.90;;;;;;5056394;28;20178;-64
2023/11/11 07:14:08;;;;;;;6.73;5.00;;;5.20;99.90;;;;;;5056165;28;20178;-65
2023/11/11 07:16:34;;;;;;;5.83;4.13;;;5.20;99.90;;;;;;5059613;28;20702;-66
2023/11/11 07:19:00;;;;;;;8.57;5.10;;;5.30;99.90;;;;;;5057915;28;20938;-65
2023/11/11 07:21:26;;;;;;;6.20;4.27;;;5.50;99.90;;;;;;5055960;28;20412;-67
2023/11/11 07:23:52;;;;;;;6.10;3.70;;;5.60;99.90;;;;;;5056099;28;21165;-64
2023/11/11 07:26:19;;;;;;;4.80;3.43;;;5.70;99.90;;;;;;5059093;28;20853;-65
2023/11/11 07:28:45;;;;;;;4.67;4.27;;;5.80;99.90;;;;;;5053736;28;20453;-65
2023/11/11 07:31:12;;;;;;;5.97;3.43;;;5.90;99.90;;;;;;5045760;28;20422;-68
2023/11/11 07:33:38;;;;;;;3.87;3.50;;;5.90;99.90;;;;;;5056052;28;20455;-65
2023/11/11 07:36:05;;;;;;;4.20;3.20;;;6.00;99.90;;;;;;5052516;28;20552;-66
2023/11/11 07:38:32;;;;;;;6.83;3.40;;;6.10;99.90;;;;;;5052430;28;20175;-66
2023/11/11 07:40:58;;;;;;;4.60;3.60;;;6.20;99.90;;;;;;5052639;28;20861;-66
2023/11/11 07:43:23;;;;;;;4.97;4.10;;;6.20;99.90;;;;;;5055611;28;20406;-70
2023/11/11 07:45:49;;;;;;;3.43;3.13;;;6.30;99.90;;;;;;5055290;28;20174;-67
2023/11/11 07:48:15;;;;;;;5.67;3.63;;;6.50;99.90;;;;;;5055580;28;20177;-69
2023/11/11 07:50:41;;;;;;;3.87;3.50;;;6.40;99.90;;;;;;5049379;28;20292;-66
2023/11/11 07:53:08;;;;;;;5.10;3.50;;;6.60;99.90;;;;;;5052595;28;20494;-67
2023/11/11 07:55:33;;;;;;;4.80;3.00;;;6.70;99.90;;;;;;5058728;28;20955;-66
2023/11/11 07:58:00;;;;;;;5.13;2.90;;;6.70;99.90;;;;;;5055363;28;20446;-65
2023/11/11 08:00:26;;;;;;;4.10;3.60;;;6.70;99.90;;;;;;5055796;28;20194;-65
2023/11/11 08:02:52;;;;;;;6.17;3.80;;;6.70;99.90;;;;;;5055028;28;20480;-66
2023/11/11 08:05:17;;;;;;;4.40;3.10;;;6.70;99.90;;;;;;5063720;28;20183;-66
2023/11/11 08:07:43;;;;;;;4.63;3.27;;;6.80;99.90;;;;;;5055215;28;20425;-67
2023/11/11 08:10:12;;;;;;;4.80;3.60;;;6.90;99.90;;;;;;5052467;28;20309;-67
2023/11/11 08:12:38;;;;;;;4.20;3.80;;;6.90;99.90;;;;;;5055801;28;20187;-66
2023/11/11 08:15:04;;;;;;;6.00;3.50;;;6.90;99.90;;;;;;5055635;28;20427;-67
2023/11/11 08:17:31;;;;;;;4.63;3.53;;;7.00;99.90;;;;;;5051349;28;20473;-66
2023/11/11 08:19:58;;;;;;;4.10;3.00;;;7.20;99.90;;;;;;5052217;28;20438;-67
2023/11/11 08:22:25;;;;;;;6.97;3.97;;;7.20;99.90;;;;;;5047091;28;20429;-67
2023/11/11 08:24:50;;;;;;;3.27;2.90;;;7.30;99.90;;;;;;5055051;28;20499;-67
2023/11/11 08:27:16;;;;;;;3.90;3.50;;;7.30;99.90;;;;;;5054123;28;20423;-67
2023/11/11 08:29:41;;;;;;;4.47;2.90;;;7.30;99.90;;;;;;5052863;28;20458;-66
2023/11/11 08:32:07;;;;;;;4.40;3.60;;;7.40;99.90;;;;;;5053359;28;20272;-67
2023/11/11 08:34:33;;;;;;;6.13;3.93;;;7.40;99.90;;;;;;5054978;28;20180;-69
2023/11/11 08:36:58;;;;;;;3.60;2.60;;;7.40;99.90;;;;;;5054479;28;20468;-70
2023/11/11 08:39:24;;;;;;;9.73;3.73;;;7.50;99.90;;;;;;5054588;28;21037;-69
2023/11/11 08:41:51;;;;;;;7.53;3.50;;;7.50;99.90;;;;;;5054598;28;20239;-67
2023/11/11 08:44:18;;;;;;;4.53;3.13;;;7.50;99.90;;;;;;5052907;28;20289;-67
2023/11/11 08:46:43;;;;;;;8.27;3.10;;;7.70;99.90;;;;;;5054563;28;20507;-67
2023/11/11 08:49:09;;;;;;;5.43;3.30;;;7.80;99.90;;;;;;5054395;28;20450;-68
2023/11/11 08:51:35;;;;;;;3.43;3.10;;;7.70;99.90;;;;;;5054767;28;20192;-71
2023/11/11 08:54:00;;;;;;;4.20;3.30;;;7.80;99.90;;;;;;5054673;28;20185;-68
2023/11/11 08:56:28;;;;;;;7.57;3.40;;;7.90;99.90;;;;;;5044978;28;20222;-69
2023/11/11 08:58:55;;;;;;;3.40;3.03;;;8.00;99.90;;;;;;5051075;28;20210;-74
2023/11/11 09:01:21;;;;;;;7.37;3.47;;;8.10;99.90;;;;;;5056077;28;20471;-68
2023/11/11 09:03:49;;;;;;;3.27;2.97;;;8.10;99.90;;;;;;5066409;28;20425;-70
2023/11/11 09:06:18;;;;;;;2.60;2.30;;;8.10;99.90;;;;;;5066044;28;20189;-69
2023/11/11 09:08:44;;;;;;;14.73;6.60;;;8.00;99.90;;;;;;5074595;28;20445;-68
2023/11/11 09:11:11;;;;;;;3.30;2.33;;;8.00;99.90;;;;;;5057840;28;20421;-66
2023/11/11 09:13:37;;;;;;;6.13;2.67;;;8.10;99.90;;;;;;5066025;28;20189;-66
2023/11/11 09:16:03;;;;;;;6.10;3.40;;;8.10;99.90;;;;;;5074215;28;20459;-66
2023/11/11 09:18:29;;;;;;;3.60;2.80;;;8.20;99.90;;;;;;5066711;28;20209;-66
2023/11/11 09:20:55;;;;;;;2.97;2.53;;;8.30;99.90;;;;;;5065443;28;20530;-66
2023/11/11 09:23:21;;;;;;;3.70;2.53;;;8.20;99.90;;;;;;5057991;28;20385;-66
2023/11/11 09:25:47;;;;;;;5.70;2.77;;;8.20;99.90;;;;;;5066816;28;20424;-65
2023/11/11 09:28:14;;;;;;;5.10;2.80;;;8.60;99.90;;;;;;5063971;28;20177;-71
2023/11/11 09:30:40;;;;;;;5.17;3.93;;;8.70;99.90;;;;;;5058801;28;20208;-65
2023/11/11 09:33:06;;;;;;;4.60;3.13;;;8.90;99.90;;;;;;5056048;28;20429;-67
2023/11/11 09:35:31;;;;;;;6.77;2.87;;;9.00;99.90;;;;;;5053514;28;21075;-66
2023/11/11 09:37:57;;;;;;;3.40;2.63;;;8.90;99.90;;;;;;5053741;28;20173;-66
2023/11/11 09:40:23;;;;;;;4.00;2.90;;;8.80;99.90;;;;;;5053891;28;20204;-66
2023/11/11 09:42:49;;;;;;;4.53;3.17;;;8.50;99.90;;;;;;5054410;28;20220;-66
2023/11/11 09:45:14;;;;;;;4.43;4.00;;;8.50;99.90;;;;;;5053023;28;20625;-66
2023/11/11 09:47:42;;;;;;;4.17;3.27;;;8.60;99.90;;;;;;5049286;28;20871;-66
2023/11/11 09:50:12;;;;;;;4.00;3.30;;;8.90;99.90;;;;;;5046931;28;20459;-66
2023/11/11 09:52:38;;;;;;;3.77;3.40;;;8.90;99.90;;;;;;5045030;28;21010;-66
2023/11/11 09:55:05;;;;;;;3.20;2.50;;;8.90;99.90;;;;;;5045080;28;20439;-66
2023/11/11 09:57:33;;;;;;;5.83;2.90;;;9.10;99.90;;;;;;5045792;28;21142;-65
2023/11/11 10:00:00;;;;;;;3.83;2.53;;;9.00;99.90;;;;;;5046754;28;20489;-65
2023/11/11 10:02:26;;;;;;;3.77;2.80;;;9.20;99.90;;;;;;5049154;28;20413;-67
2023/11/11 10:04:55;;;;;;;6.13;3.10;;;9.20;99.90;;;;;;5043394;28;20422;-68
2023/11/11 10:07:23;;;;;;;3.60;3.30;;;9.60;99.90;;;;;;5047396;28;20507;-68
2023/11/11 10:09:53;;;;;;;10.40;3.83;;;9.50;99.90;;;;;;5046992;28;21034;-66
2023/11/11 10:12:18;;;;;;;5.30;3.53;;;9.50;99.90;;;;;;5047775;28;20593;-66
2023/11/11 10:14:44;;;;;;;6.33;3.70;;;9.60;99.90;;;;;;5047899;28;20421;-66
2023/11/11 10:17:11;;;;;;;3.30;2.60;;;9.30;99.90;;;;;;5047794;28;20237;-66
2023/11/11 10:19:42;;;;;;;5.00;3.40;;;9.50;99.90;;;;;;5043073;28;20245;-68
2023/11/11 10:22:08;;;;;;;4.57;2.93;;;9.40;99.90;;;;;;5046238;28;20511;-67
2023/11/11 10:24:34;;;;;;;5.30;3.20;;;9.70;99.90;;;;;;5046382;28;20420;-68
2023/11/11 10:27:00;;;;;;;6.60;3.07;;;9.60;99.90;;;;;;5046555;28;20423;-66
2023/11/11 10:29:26;;;;;;;3.40;3.10;;;9.70;99.90;;;;;;5046405;28;20452;-66
2023/11/11 10:31:52;;;;;;;4.10;2.93;;;9.70;99.90;;;;;;5047118;28;20186;-66
2023/11/11 10:34:17;;;;;;;3.67;2.60;;;9.90;99.90;;;;;;5048658;28;20443;-66
2023/11/11 10:36:44;;;;;;;5.47;3.37;;;9.90;99.90;;;;;;5049457;28;20216;-66
2023/11/11 10:39:11;;;;;;;3.77;3.10;;;9.90;99.90;;;;;;5049747;28;20441;-67
2023/11/11 10:41:41;;;;;;;3.60;2.60;;;9.90;99.90;;;;;;5049901;28;20906;-68
2023/11/11 10:44:07;;;;;;;3.40;2.70;;;9.90;99.90;;;;;;5047733;28;20420;-67
2023/11/11 10:46:39;;;;;;;4.30;3.20;;;9.70;99.90;;;;;;5051063;28;20444;-66
2023/11/11 10:49:08;;;;;;;3.57;2.90;;;9.90;99.90;;;;;;5049210;28;20440;-66
2023/11/11 10:51:34;;;;;;;3.70;2.40;;;10.00;99.90;;;;;;5049648;28;20425;-66
2023/11/11 10:54:05;;;;;;;5.37;3.33;;;10.00;99.90;;;;;;5048852;28;20860;-67
2023/11/11 10:56:34;;;;;;;3.07;2.77;;;10.00;99.90;;;;;;5047464;28;20988;-67
2023/11/11 10:59:04;;;;;;;4.07;2.73;;;9.80;99.90;;;;;;5050672;28;20510;-67
2023/11/11 11:01:36;;;;;;;4.17;2.83;;;9.70;99.90;;;;;;5049195;28;20432;-65
2023/11/11 11:04:03;;;;;;;4.63;3.13;;;9.70;99.90;;;;;;5049526;28;20425;-66
2023/11/11 11:06:51;;;;;;;3.20;2.90;;;9.80;99.90;;;;;;5044603;28;20895;-67
2023/11/11 11:09:29;;;;;;;3.50;2.87;;;10.00;99.90;;;;;;5044935;28;21038;-67
2023/11/11 11:12:05;;;;;;;4.00;2.50;;;10.00;99.90;;;;;;5046060;28;20422;-66
2023/11/11 11:14:46;;;;;;;3.80;2.63;;;9.90;99.90;;;;;;5046664;28;20428;-67
2023/11/11 11:17:12;;;;;;;3.23;2.93;;;9.80;99.90;;;;;;5043808;28;20465;-67
2023/11/11 11:20:00;;;;;;;3.73;3.30;;;9.70;99.90;;;;;;5044500;28;20441;-67
2023/11/11 11:22:39;;;;;;;4.90;2.50;;;9.90;99.90;;;;;;5043701;28;20186;-66
2023/11/11 11:25:45;;;;;;;3.53;3.07;;;9.90;99.90;;;;;;5045127;28;20420;-69
2023/11/11 11:28:10;;;;;;;6.60;3.10;;;10.00;99.90;;;;;;5042376;28;20428;-65
2023/11/11 11:30:47;;;;;;;3.10;2.70;;;10.00;99.90;;;;;;5044406;28;21032;-69
2023/11/11 11:33:15;;;;;;;2.80;2.60;;;10.00;99.90;;;;;;5049297;28;20667;-66
2023/11/11 11:36:01;;;;;;;5.77;3.20;;;10.30;99.90;;;;;;5044665;28;20516;-65
2023/11/11 11:38:33;;;;;;;2.97;2.47;;;10.20;99.90;;;;;;5044086;28;20424;-66
2023/11/11 11:41:02;;;;;;;4.40;2.77;;;10.10;99.90;;;;;;5042769;28;20421;-66
2023/11/11 11:43:29;;;;;;;3.30;2.93;;;10.10;99.90;;;;;;5045643;28;20413;-66
2023/11/11 11:45:59;;;;;;;4.20;3.47;;;10.10;99.90;;;;;;5044286;28;21006;-68
2023/11/11 11:48:29;;;;;;;5.27;3.83;;;10.00;99.90;;;;;;5042667;28;20433;-66
2023/11/11 11:51:16;;;;;;;3.50;3.20;;;10.00;99.90;;;;;;5043669;28;20478;-68
2023/11/11 11:53:43;;;;;;;3.87;3.40;;;10.10;99.90;;;;;;5042334;28;20754;-66
2023/11/11 11:56:30;;;;;;;5.43;4.03;;;10.10;99.90;;;;;;5044714;28;21035;-65
2023/11/11 11:58:58;;;;;;;4.70;3.90;;;10.00;99.90;;;;;;5043345;28;20843;-65
2023/11/11 12:01:28;;;;;;;6.87;4.40;;;9.90;99.90;;;;;;5042109;28;20422;-67
2023/11/11 12:03:55;;;;;;;4.07;3.60;;;9.70;99.90;;;;;;5041902;28;20564;-67
2023/11/11 12:06:24;;;;;;;5.00;3.37;;;9.90;99.90;;;;;;5045679;28;20943;-67
2023/11/11 12:08:51;;;;;;;4.00;3.60;;;10.00;99.90;;;;;;5044020;28;20862;-67
2023/11/11 12:11:27;;;;;;;6.87;3.73;;;10.00;99.90;;;;;;5042714;28;20432;-67
2023/11/11 12:13:53;;;;;;;3.97;2.97;;;9.90;99.90;;;;;;5042560;28;20953;-69
2023/11/11 12:16:20;;;;;;;6.23;3.27;;;9.80;99.90;;;;;;5041891;28;20948;-67
2023/11/11 12:18:48;;;;;;;4.20;2.93;;;9.60;99.90;;;;;;5044137;28;20491;-67
2023/11/11 12:21:18;;;;;;;6.23;3.63;;;9.50;99.90;;;;;;5044249;28;20508;-67
2023/11/11 12:23:44;;;;;;;3.90;3.43;;;9.60;99.90;;;;;;5042068;28;20516;-67
2023/11/11 12:26:10;;;;;;;5.30;3.33;;;9.80;99.90;;;;;;5039399;28;20565;-67
2023/11/11 12:28:36;;;;;;;4.17;2.90;;;9.70;99.90;;;;;;5044606;28;21411;-67
2023/11/11 12:31:05;;;;;;;3.80;2.87;;;9.80;99.90;;;;;;5045336;28;20871;-66
2023/11/11 12:33:31;;;;;;;7.20;3.30;;;9.80;99.90;;;;;;5045335;28;20343;-68
2023/11/11 12:35:58;;;;;;;5.30;3.57;;;9.90;99.90;;;;;;5045723;28;20934;-66
2023/11/11 12:38:25;;;;;;;4.20;3.27;;;10.00;99.90;;;;;;5044564;28;20820;-66
2023/11/11 12:40:52;;;;;;;4.10;2.50;;;10.00;99.90;;;;;;5046138;28;20447;-67
2023/11/11 12:43:19;;;;;;;4.47;3.50;;;9.80;99.90;;;;;;5044935;28;20725;-66
2023/11/11 12:45:50;;;;;;;3.23;2.70;;;10.10;99.90;;;;;;5046359;28;20415;-67
2023/11/11 12:48:16;;;;;;;5.20;4.10;;;10.10;99.90;;;;;;5044394;28;20413;-67
2023/11/11 12:50:44;;;;;;;5.47;3.87;;;10.20;99.90;;;;;;5046465;28;20503;-66
2023/11/11 12:53:11;;;;;;;5.03;4.23;;;10.30;99.90;;;;;;5049329;28;20414;-66